Terminal Aerodrome Forecast
Issued by NWS

Home | Current Version | Previous Version | Text Only | Print | Product List | Glossary On
Versions: 1 2 3 4 5 6 7 8 9 10 11 12 13 14 15 16 17 18 19 20 21 22 23 24 25 26 27 28 29 30 31 32 33 34 35
000
FTUS41 KCTP 050234 AAA
TAFBFD
TAF AMD
KBFD 050234Z 0503/0524 14012KT P6SM SCT025 OVC080
     FM050400 14009KT P6SM BKN025 OVC035
     FM050600 14007KT 2SM -SN BR OVC008
     FM050800 22007KT 3SM -SHSN BR OVC010
     FM051200 27011KT 5SM -SHSN BR OVC025
     FM051900 29008KT P6SM OVC030=

USA.gov is the U.S. government's official web portal to all federal, state and local government web resources and services.